Flight Track Log - Related Links

Times and Time Zones

All times are in EDT time to prevent confusion due to time zone crossing. See the AAL2460 flight status page for this flight to view local times or setup timezone preferences in your user account.

Time Position Orientation Groundspeed Altitude Reporting Facility
EDT Latitude Longitude Course Direction KTS MPH feet Rate Location/Type
Wed 08:11:57 PM 33.9281 -118.4678 86° East 185 213 3,000  Level Los Angeles Center
Wed 08:12:59 PM 33.8853 -118.5294 230° Southwest 245 282 5,100 2,371 Climbing Los Angeles Center
Wed 08:13:00 PM 33.7757 -118.6343 132° Southeast  Level FlightAware Approximate
Wed 08:14:00 PM 33.6938 -118.5297 134° Southeast  Level FlightAware Approximate
Wed 08:14:01 PM 33.8183 -118.5522 196° South 277 319 7,900  Level Los Angeles Center
Wed 08:15:00 PM 33.6582 -118.3955 116° Southeast  Level FlightAware Approximate
Wed 08:15:03 PM 33.7414 -118.5328 168° South 289 333 10,500  Level Los Angeles Center
Wed 08:16:00 PM 33.6334 -118.2587 90° East  Level FlightAware Approximate
Wed 08:16:05 PM 33.6739 -118.4331 129° Southeast 331 381 13,000  Level Los Angeles Center
Wed 08:17:00 PM 33.6406 -118.1146 86° East  Level Estimated
Wed 08:17:07 PM 33.6653 -118.3203 95° East 348 400 15,600  Level Los Angeles Center
Wed 08:18:09 PM 33.6653 -118.2008 90° East 365 420 17,100 1,403 Climbing Los Angeles Center
Wed 08:19:11 PM 33.6639 -118.0633 91° East 400 460 18,500 1,680 Climbing Los Angeles Center
Wed 08:20:14 PM 33.6619 -117.8886 91° East 433 498 20,600 1,728 Climbing Los Angeles Center
Wed 08:21:16 PM 33.6592 -117.7386 91° East 448 516 22,100 1,694 Climbing Los Angeles Center
Wed 08:22:18 PM 33.6581 -117.5858 90° East 459 528 24,100 1,742 Climbing Los Angeles Center
Wed 08:23:20 PM 33.6567 -117.4286 91° East 468 539 25,700 1,500 Climbing Los Angeles Center
Wed 08:24:22 PM 33.6531 -117.2700 92° East 475 547 27,200 1,839 Climbing Los Angeles Center
Wed 08:25:24 PM 33.6500 -117.0769 91° East 482 555 29,500 2,081 Climbing Los Angeles Center
Wed 08:26:26 PM 33.6586 -116.9206 86° East 473 544 31,500 1,935 Climbing Los Angeles Center
Wed 08:27:28 PM 33.6917 -116.7628 76° East 470 541 33,500 1,645 Climbing Los Angeles Center
Wed 08:28:30 PM 33.7225 -116.6108 76° East 468 539 34,900 672 Climbing Los Angeles Center
Wed 08:29:33 PM 33.7531 -116.4597 76° East 464 534 34,900  Level Los Angeles Center
Wed 08:30:35 PM 33.7828 -116.3106 76° East 460 529 34,900  Level Los Angeles Center
Wed 08:31:37 PM 33.8133 -116.1578 76° East 466 536 34,900  Level Los Angeles Center
Wed 08:32:38 PM 33.8381 -116.0372 76° East 468 539 34,900  Level Los Angeles Center
Wed 08:33:40 PM 33.8778 -115.8314 77° East 454 522 34,900  Level Los Angeles Center
Wed 08:34:42 PM 33.9064 -115.6814 77° East 459 528 34,900  Level Los Angeles Center
Wed 08:35:44 PM 33.9331 -115.5328 78° East 455 524 34,900  Level Los Angeles Center
Wed 08:36:46 PM 33.9625 -115.3831 77° East 458 527 34,900  Level Los Angeles Center
Wed 08:37:48 PM 33.9908 -115.2342 77° East 456 525 34,900  Level Los Angeles Center
Wed 08:38:50 PM 34.0197 -115.0850 77° East 457 526 34,900  Level Los Angeles Center
Wed 08:39:52 PM 34.0544 -114.9064 77° East 458 527 34,900  Level Los Angeles Center
Wed 08:40:54 PM 34.0831 -114.7581 77° East 455 524 34,900  Level Los Angeles Center
Wed 08:41:56 PM 34.1067 -114.6083 79° East 455 524 34,900  Level Los Angeles Center
Wed 08:43:10 PM 34.1239 -114.4569 82° East 455 524 34,900  Level Los Angeles Center
Wed 08:44:13 PM 34.1361 -114.2714 85° East 459 528 34,900  Level Los Angeles Center
Wed 08:45:15 PM 34.1492 -114.1189 84° East 458 527 34,900  Level Los Angeles Center
Wed 08:46:17 PM 34.1619 -113.9350 85° East 459 528 34,900 48 Level Los Angeles Center
Wed 08:47:19 PM 34.1733 -113.7819 85° East 458 527 35,000  Climbing Los Angeles Center
Wed 08:48:21 PM 34.1814 -113.6594 85° East 459 528 34,900  Descending Los Angeles Center
Wed 08:49:23 PM 34.1928 -113.4872 85° East 467 537 35,000 41 Climbing Los Angeles Center
Wed 08:50:47 PM 34.2086 -113.2589 85° East 457 526 35,000  Level Albuquerque Center
Wed 08:51:49 PM 34.2194 -113.1050 85° East 458 527 35,000  Level Albuquerque Center
Wed 08:52:50 PM 34.2306 -112.9522 85° East 458 527 35,000  Level Albuquerque Center
Wed 08:53:51 PM 34.2400 -112.8000 86° East 457 526 35,000  Level Albuquerque Center
Wed 08:54:53 PM 34.2497 -112.6458 86° East 458 527 35,000  Level Albuquerque Center
Wed 08:55:54 PM 34.2625 -112.4625 85° East 458 527 35,000  Level Albuquerque Center
Wed 08:56:56 PM 34.2717 -112.3083 86° East 458 527 35,000  Level Albuquerque Center
Wed 08:57:57 PM 34.2808 -112.1539 86° East 458 527 35,000  Level Albuquerque Center
Wed 08:58:59 PM 34.2900 -111.9986 86° East 459 528 35,000  Level Albuquerque Center
Wed 09:00:00 PM 34.2989 -111.8422 86° East 461 531 35,000  Level Albuquerque Center
Wed 09:01:02 PM 34.3075 -111.6867 86° East 460 529 35,000  Level Albuquerque Center
Wed 09:02:03 PM 34.3167 -111.5303 86° East 462 532 35,000  Level Albuquerque Center
Wed 09:03:05 PM 34.3250 -111.3750 86° East 461 531 35,000  Level Albuquerque Center
Wed 09:04:06 PM 34.3331 -111.2192 86° East 462 532 35,000  Level Albuquerque Center
Wed 09:05:08 PM 34.3414 -111.0636 86° East 464 534 35,000  Level Albuquerque Center
Wed 09:06:09 PM 34.3500 -110.9069 86° East 465 535 35,000  Level Albuquerque Center
Wed 09:07:11 PM 34.3594 -110.7194 86° East 466 536 35,000  Level Albuquerque Center
Wed 09:08:12 PM 34.3672 -110.5628 87° East 467 537 35,000  Level Albuquerque Center
Wed 09:09:14 PM 34.3744 -110.4069 87° East 465 535 35,000  Level Albuquerque Center
Wed 09:10:15 PM 34.3803 -110.2519 87° East 469 540 35,000  Level Albuquerque Center
Wed 09:11:17 PM 34.3897 -110.0761 86° East 469 540 35,000  Level Albuquerque Center
Wed 09:12:18 PM 34.3958 -109.9244 87° East 471 542 35,000  Level Albuquerque Center
Wed 09:13:19 PM 34.4050 -109.7492 86° East 469 540 35,000  Level Albuquerque Center
Wed 09:14:21 PM 34.4100 -109.5958 88° East 474 545 35,000  Level Albuquerque Center
Wed 09:15:22 PM 34.4167 -109.4464 87° East 470 541 35,000  Level Albuquerque Center
Wed 09:16:24 PM 34.4225 -109.2689 88° East 471 542 35,000  Level Albuquerque Center
Wed 09:17:25 PM 34.4281 -109.1181 87° East 471 542 35,000  Level Albuquerque Center
Wed 09:18:27 PM 34.4267 -108.9428 91° East 468 539 35,000  Level Albuquerque Center
Wed 09:19:28 PM 34.4253 -108.7931 91° East 467 537 35,000  Level Albuquerque Center
Wed 09:20:30 PM 34.4239 -108.6428 91° East 466 536 35,000  Level Albuquerque Center
Wed 09:21:31 PM 34.4219 -108.4672 91° East 467 537 35,000  Level Albuquerque Center
Wed 09:22:33 PM 34.4206 -108.3039 91° East 467 537 35,000  Level Albuquerque Center
Wed 09:23:34 PM 34.4189 -108.1464 91° East 469 540 35,000  Level Albuquerque Center
Wed 09:24:36 PM 34.4172 -107.9881 91° East 471 542 35,000  Level Albuquerque Center
Wed 09:25:37 PM 34.4169 -107.8308 90° East 471 542 35,000  Level Albuquerque Center
Wed 09:26:38 PM 34.4156 -107.6728 91° East 470 541 35,000  Level Albuquerque Center
Wed 09:27:40 PM 34.4122 -107.5158 91° East 470 541 35,000  Level Albuquerque Center
Wed 09:28:41 PM 34.4097 -107.3583 91° East 470 541 35,000  Level Albuquerque Center
Wed 09:29:43 PM 34.4061 -107.1997 92° East 472 543 35,000  Level Albuquerque Center
Wed 09:30:44 PM 34.4028 -107.0078 91° East 478 550 35,000  Level Albuquerque Center
Wed 09:31:45 PM 34.3989 -106.8497 92° East 476 548 35,000  Level Albuquerque Center
Wed 09:32:47 PM 34.3961 -106.6886 91° East 480 552 35,000  Level Albuquerque Center
Wed 09:33:48 PM 34.3917 -106.5300 92° East 477 549 35,000  Level Albuquerque Center
Wed 09:34:50 PM 34.3881 -106.3694 92° East 478 550 35,000  Level Albuquerque Center
Wed 09:35:51 PM 34.3900 -106.2025 89° East 477 549 35,000  Level Albuquerque Center
Wed 09:36:53 PM 34.3986 -106.0431 86° East 472 543 35,000  Level Albuquerque Center
Wed 09:37:54 PM 34.4056 -105.8550 87° East 476 548 35,000  Level Albuquerque Center
Wed 09:38:55 PM 34.4119 -105.6933 87° East 478 550 35,000  Level Albuquerque Center
Wed 09:39:57 PM 34.4192 -105.5331 87° East 475 547 35,000  Level Albuquerque Center
Wed 09:40:58 PM 34.4253 -105.3711 87° East 477 549 35,000  Level Albuquerque Center
Wed 09:42:00 PM 34.4314 -105.2103 87° East 477 549 35,000  Level Albuquerque Center
Wed 09:43:01 PM 34.4364 -105.0492 88° East 476 548 35,000  Level Albuquerque Center
Wed 09:44:02 PM 34.4431 -104.8892 87° East 474 545 35,000  Level Albuquerque Center
Wed 09:45:04 PM 34.4481 -104.7306 88° East 470 541 35,000  Level Albuquerque Center
Wed 09:46:05 PM 34.4531 -104.5689 88° East 476 548 35,000  Level Albuquerque Center
Wed 09:47:07 PM 34.4586 -104.4081 88° East 477 549 35,000  Level Albuquerque Center
Wed 09:48:08 PM 34.4628 -104.2478 88° East 475 547 35,000  Level Albuquerque Center
Wed 09:49:09 PM 34.4569 -104.0617 92° East 474 545 35,000  Level Albuquerque Center
Wed 09:50:11 PM 34.4511 -103.9006 92° East 476 548 35,000  Level Albuquerque Center
Wed 09:51:12 PM 34.4447 -103.7406 93° East 475 547 35,000  Level Albuquerque Center
Wed 09:52:13 PM 34.4381 -103.5792 93° East 476 548 35,000  Level Albuquerque Center
Wed 09:53:15 PM 34.4306 -103.4211 93° East 472 543 35,000  Level Albuquerque Center
Wed 09:54:16 PM 34.4225 -103.2639 94° East 468 539 35,000  Level Albuquerque Center
Wed 09:55:18 PM 34.4161 -103.1053 93° East 469 540 35,000  Level Albuquerque Center
Wed 09:56:19 PM 34.4069 -102.9342 94° East 470 541 35,000  Level Albuquerque Center
Wed 09:57:20 PM 34.3983 -102.7778 94° East 469 540 35,000  Level Albuquerque Center
Wed 09:58:22 PM 34.3911 -102.6206 93° East 469 540 35,000  Level Albuquerque Center
Wed 09:59:23 PM 34.3839 -102.4686 93° East 462 532 35,000  Level Albuquerque Center
Wed 10:00:24 PM 34.3758 -102.3133 94° East 462 532 35,000  Level Albuquerque Center
Wed 10:01:26 PM 34.3681 -102.1581 93° East 464 534 35,000  Level Albuquerque Center
Wed 10:02:27 PM 34.3600 -102.0031 94° East 465 535 35,000  Level Albuquerque Center
Wed 10:03:28 PM 34.3486 -101.8172 94° East 464 534 35,000  Level Albuquerque Center
Wed 10:04:30 PM 34.3403 -101.6628 94° East 464 534 35,000  Level Albuquerque Center
Wed 10:05:32 PM 34.3314 -101.5069 94° East 466 536 35,000  Level Albuquerque Center
Wed 10:06:32 PM 34.3211 -101.3522 95° East 465 535 35,000  Level Albuquerque Center
Wed 10:07:34 PM 34.3119 -101.1989 94° East 463 533 35,000  Level Albuquerque Center
Wed 10:08:45 PM 34.2967 -101.0158 96° East 463 533 35,000  Level Fort Worth Center
Wed 10:09:45 PM 34.2803 -100.8619 97° East 463 533 35,000  Level Fort Worth Center
Wed 10:10:45 PM 34.2614 -100.7053 98° East 469 540 35,000  Level Fort Worth Center
Wed 10:11:45 PM 34.2444 -100.5514 98° East 469 540 35,000  Level Fort Worth Center
Wed 10:12:45 PM 34.2214 -100.3897 100° East 460 529 35,000 -300 Level Fort Worth Center
Wed 10:13:45 PM 34.2000 -100.2308 99° East 465 535 34,400 -1,000 Descending Fort Worth Center
Wed 10:14:45 PM 34.1614 -100.0817 107° East 465 535 33,000 -700 Descending Fort Worth Center
Wed 10:15:45 PM 34.1228 -99.9322 107° East 470 541 33,000  Level Fort Worth Center
Wed 10:16:45 PM 34.0819 -99.7781 108° East 470 541 33,000  Level Fort Worth Center
Wed 10:17:45 PM 34.0389 -99.6242 109° East 475 547 33,000  Level Fort Worth Center
Wed 10:18:45 PM 33.9978 -99.4728 108° East 475 547 33,000  Level Fort Worth Center
Wed 10:19:45 PM 33.9603 -99.3367 108° East 475 547 33,000 -400 Level Fort Worth Center
Wed 10:20:45 PM 33.9208 -99.1856 107° East 470 541 32,200 -1,450 Descending Fort Worth Center
Wed 10:21:45 PM 33.8789 -99.0347 108° East 470 541 30,100 -1,950 Descending Fort Worth Center
Wed 10:22:45 PM 33.8350 -98.8839 109° East 465 535 28,300 -1,650 Descending Fort Worth Center
Wed 10:23:45 PM 33.7908 -98.7206 108° East 470 541 26,800 -1,350 Descending Fort Worth Center
Wed 10:24:45 PM 33.7506 -98.5725 108° East 470 541 25,600 -1,200 Descending Fort Worth Center
Wed 10:25:45 PM 33.7100 -98.4272 109° East 464 534 24,400 -1,550 Descending Fort Worth Center
Wed 10:26:45 PM 33.6714 -98.2969 110° East 464 534 22,500 -2,150 Descending Fort Worth Center
Wed 10:27:45 PM 33.6328 -98.1619 109° East 448 516 20,100 -2,600 Descending Fort Worth Center
Wed 10:28:45 PM 33.5917 -98.0144 108° East 425 489 17,300 -2,450 Descending Fort Worth Center
Wed 10:29:45 PM 33.5400 -97.9044 119° Southeast 418 481 15,200 -2,500 Descending Fort Worth Center
Wed 10:30:45 PM 33.4717 -97.7869 125° Southeast 408 470 12,300 -2,100 Descending Fort Worth Center
Wed 10:31:45 PM 33.4156 -97.6972 127° Southeast 383 441 11,000 -1,165 Descending Fort Worth Center
Wed 10:32:28 PM 33.3667 -97.6167 126° Southeast 321 369 10,300 -1,041 Descending Dallas / Fort Worth TRACON
Wed 10:33:23 PM 33.3167 -97.5667 140° Southeast 305 351 9,300 -1,250 Descending Dallas / Fort Worth TRACON
Wed 10:34:28 PM 33.2500 -97.4833 134° Southeast 292 336 7,800 -1,392 Descending Dallas / Fort Worth TRACON
Wed 10:35:28 PM 33.2000 -97.4167 132° Southeast 285 328 6,400 -1,300 Descending Dallas / Fort Worth TRACON
Wed 10:36:28 PM 33.1500 -97.3500 132° Southeast 276 318 5,200 -1,200 Descending Dallas / Fort Worth TRACON
Wed 10:37:23 PM 33.1000 -97.2833 132° Southeast 266 306 4,100 -1,100 Descending Dallas / Fort Worth TRACON
Wed 10:38:28 PM 33.0500 -97.2167 132° Southeast 241 277 3,000 -600 Descending Dallas / Fort Worth TRACON
Wed 10:39:23 PM 33.0167 -97.1833 140° Southeast 175 201 2,900 -109 Descending Dallas / Fort Worth TRACON

Login

Don't have an account? Register now (free) for customized features, flight alerts, and more!